Time;durP1;ratioP1;P1;durP2;ratioP2;P2;SDS_P1;SDS_P2;PMS_P1;PMS_P2;Temp;Humidity;BMP_temperature;BMP_pressure;BME280_temperature;BME280_humidity;BME280_pressure;Samples;Min_cycle;Max_cycle;Signal;HPM_P1;HPM_P2
2022/09/21 00:02:01;;;;;;;5.50;2.10;;;10.80;99.90;;;;;;5052546;28;20481;-83
2022/09/21 00:04:27;;;;;;;3.80;1.67;;;10.70;99.90;;;;;;5052834;28;20032;-82
2022/09/21 00:06:53;;;;;;;7.77;2.23;;;10.70;99.90;;;;;;5052324;28;20124;-82
2022/09/21 00:09:19;;;;;;;4.83;1.90;;;10.70;99.90;;;;;;5052321;28;20032;-82
2022/09/21 00:11:45;;;;;;;6.67;2.10;;;10.70;99.90;;;;;;5052275;28;20397;-82
2022/09/21 00:14:13;;;;;;;5.57;1.90;;;10.70;99.90;;;;;;5052247;28;20405;-83
2022/09/21 00:16:40;;;;;;;5.03;1.80;;;10.70;99.90;;;;;;5052168;28;20021;-82
2022/09/21 00:19:06;;;;;;;4.73;1.80;;;10.70;99.90;;;;;;5034118;28;20076;-83
2022/09/21 00:21:33;;;;;;;5.43;1.90;;;10.60;99.90;;;;;;5034245;28;20060;-82
2022/09/21 00:23:59;;;;;;;2.87;1.50;;;10.60;99.90;;;;;;5034631;28;20033;-82
2022/09/21 00:26:26;;;;;;;6.90;2.10;;;10.60;99.90;;;;;;5051931;28;20052;-83
2022/09/21 00:28:58;;;;;;;4.80;2.37;;;10.60;99.90;;;;;;5017509;28;20029;-83
2022/09/21 00:31:25;;;;;;;5.77;2.40;;;10.60;99.90;;;;;;5034068;28;20100;-83
2022/09/21 00:33:51;;;;;;;4.07;1.80;;;10.60;99.90;;;;;;5034383;28;20108;-83
2022/09/21 00:36:19;;;;;;;6.70;1.90;;;10.60;99.90;;;;;;5051831;28;20074;-83
2022/09/21 00:38:53;;;;;;;3.53;1.50;;;10.60;99.90;;;;;;5033929;28;20028;-83
2022/09/21 00:41:20;;;;;;;5.10;1.83;;;10.60;99.90;;;;;;5052008;28;20036;-83
2022/09/21 00:43:49;;;;;;;6.50;2.07;;;10.70;99.90;;;;;;5052020;28;20090;-83
2022/09/21 00:46:26;;;;;;;4.47;2.05;;;10.70;99.90;;;;;;5051640;28;20043;-83
2022/09/21 00:48:52;;;;;;;5.43;2.07;;;10.70;99.90;;;;;;5033841;28;20028;-83
2022/09/21 00:51:18;;;;;;;5.27;1.87;;;10.70;99.90;;;;;;5051494;28;20029;-82
2022/09/21 00:53:45;;;;;;;7.67;2.20;;;10.70;99.90;;;;;;5033749;28;20037;-82
2022/09/21 00:56:11;;;;;;;5.80;2.00;;;10.70;99.90;;;;;;5033575;28;20494;-83
2022/09/21 00:58:45;;;;;;;4.93;2.03;;;10.70;99.90;;;;;;5033497;28;20025;-83
2022/09/21 01:01:15;;;;;;;4.40;2.23;;;10.70;99.90;;;;;;5033626;28;20038;-83
2022/09/21 01:03:44;;;;;;;5.63;2.43;;;10.70;99.90;;;;;;5051489;28;20548;-83
2022/09/21 01:06:11;;;;;;;6.90;2.33;;;10.80;99.90;;;;;;5033350;28;20025;-82
2022/09/21 01:08:39;;;;;;;7.07;2.37;;;10.70;99.90;;;;;;5033592;28;20029;-82
2022/09/21 01:11:26;;;;;;;7.53;2.93;;;10.80;99.90;;;;;;5033189;28;20033;-83
2022/09/21 01:14:13;;;;;;;5.03;2.33;;;10.80;99.90;;;;;;5051235;28;20029;-83
2022/09/21 01:17:01;;;;;;;5.63;2.10;;;10.80;99.90;;;;;;5033499;28;20393;-83
2022/09/21 01:19:42;;;;;;;5.03;2.00;;;10.80;99.90;;;;;;5033140;28;20033;-83
2022/09/21 01:22:24;;;;;;;6.73;2.30;;;10.90;99.90;;;;;;5033061;28;20286;-83
2022/09/21 01:24:55;;;;;;;5.83;2.13;;;10.80;99.90;;;;;;5051098;28;20097;-83
2022/09/21 01:28:00;;;;;;;6.33;1.90;;;10.80;99.90;;;;;;5051153;28;20049;-83
2022/09/21 01:30:28;;;;;;;9.03;2.40;;;10.80;99.90;;;;;;5042281;28;20576;-83
2022/09/21 01:33:09;;;;;;;5.23;2.10;;;10.80;99.90;;;;;;5016672;28;20056;-83
2022/09/21 01:35:42;;;;;;;6.93;2.80;;;10.80;99.90;;;;;;5051229;28;20041;-83
2022/09/21 01:38:16;;;;;;;4.93;2.17;;;10.80;99.90;;;;;;5051040;28;20032;-83
2022/09/21 01:40:46;;;;;;;7.73;2.50;;;10.90;99.90;;;;;;5050698;28;20374;-83
2022/09/21 01:43:24;;;;;;;8.67;2.90;;;10.80;99.90;;;;;;5050916;28;20033;-82
2022/09/21 01:45:53;;;;;;;6.83;2.90;;;10.80;99.90;;;;;;5050627;28;20485;-83
2022/09/21 01:48:21;;;;;;;5.10;2.37;;;10.80;99.90;;;;;;5033247;28;20374;-83
2022/09/21 01:50:56;;;;;;;8.10;2.47;;;10.80;99.90;;;;;;5032560;28;20036;-83
2022/09/21 01:53:25;;;;;;;4.73;2.27;;;10.80;99.90;;;;;;5033004;28;20036;-83
2022/09/21 01:56:00;;;;;;;5.82;2.40;;;10.80;99.90;;;;;;5050671;28;20067;-83
2022/09/21 01:59:00;;;;;;;5.50;2.53;;;10.80;99.90;;;;;;5016543;28;20392;-83
2022/09/21 02:01:28;;;;;;;8.00;2.60;;;10.80;99.90;;;;;;5033975;28;20029;-83
2022/09/21 02:04:03;;;;;;;3.15;2.10;;;10.80;99.90;;;;;;5032828;28;20033;-82
2022/09/21 02:06:29;;;;;;;5.33;2.20;;;10.70;99.90;;;;;;5050457;28;20037;-82
2022/09/21 02:08:55;;;;;;;4.97;2.60;;;10.70;99.90;;;;;;5050461;28;20044;-82
2022/09/21 02:11:21;;;;;;;5.23;2.50;;;10.70;99.90;;;;;;5050456;28;20029;-82
2022/09/21 02:13:51;;;;;;;8.90;3.53;;;10.70;99.90;;;;;;5032712;28;20039;-82
2022/09/21 02:16:23;;;;;;;9.07;3.93;;;10.60;99.90;;;;;;5050441;28;20025;-82
2022/09/21 02:19:24;;;;;;;9.93;3.63;;;10.60;99.90;;;;;;5050236;28;20025;-82
2022/09/21 02:22:17;;;;;;;8.37;3.20;;;10.60;99.90;;;;;;5039526;28;20561;-82
2022/09/21 02:25:02;;;;;;;7.63;3.00;;;10.60;99.90;;;;;;5050810;28;20029;-82
2022/09/21 02:27:38;;;;;;;8.73;3.30;;;10.60;99.90;;;;;;5050457;28;20036;-82
2022/09/21 02:30:13;;;;;;;8.70;4.00;;;10.70;99.90;;;;;;5050251;28;20041;-82
2022/09/21 02:33:01;;;;;;;7.00;3.80;;;10.70;99.90;;;;;;5051453;28;20024;-82
2022/09/21 02:36:00;;;;;;;9.90;3.53;;;10.70;99.90;;;;;;5054817;28;20531;-83
2022/09/21 02:38:46;;;;;;;8.90;3.60;;;10.60;99.90;;;;;;5036506;28;20119;-82
2022/09/21 02:41:22;;;;;;;8.03;3.60;;;10.60;99.90;;;;;;5054231;28;20036;-82
2022/09/21 02:44:00;;;;;;;7.30;3.43;;;10.50;99.90;;;;;;5036557;28;20029;-82
2022/09/21 02:47:00;;;;;;;7.20;3.00;;;10.50;99.90;;;;;;5053912;28;20033;-82
2022/09/21 02:49:41;;;;;;;6.97;3.20;;;10.50;99.90;;;;;;5053988;28;20065;-82
2022/09/21 02:52:12;;;;;;;6.87;3.50;;;10.40;99.90;;;;;;5053970;28;20155;-82
2022/09/21 02:54:40;;;;;;;4.80;2.70;;;10.50;99.90;;;;;;5054124;28;20029;-82
2022/09/21 02:57:06;;;;;;;5.70;3.08;;;10.50;99.90;;;;;;5035816;28;20447;-82
2022/09/21 02:59:32;;;;;;;7.17;2.87;;;10.50;99.90;;;;;;5053650;28;20405;-82
2022/09/21 03:01:58;;;;;;;7.00;2.90;;;10.40;99.90;;;;;;5035826;28;20082;-82
2022/09/21 03:04:26;;;;;;;10.50;3.43;;;10.40;99.90;;;;;;5036043;28;20397;-82
2022/09/21 03:06:52;;;;;;;6.83;2.70;;;10.40;99.90;;;;;;5035503;28;20504;-82
2022/09/21 03:09:19;;;;;;;6.47;3.17;;;10.40;99.90;;;;;;5035789;28;20177;-82
2022/09/21 03:11:45;;;;;;;8.20;3.20;;;10.30;99.90;;;;;;5035600;28;20059;-82
2022/09/21 03:14:11;;;;;;;7.40;3.10;;;10.40;99.90;;;;;;5053562;28;20033;-82
2022/09/21 03:16:37;;;;;;;8.30;3.00;;;10.40;99.90;;;;;;5053359;28;20086;-82
2022/09/21 03:19:04;;;;;;;6.37;2.60;;;10.30;99.90;;;;;;5053260;28;20047;-82
2022/09/21 03:21:30;;;;;;;10.00;3.10;;;10.30;99.90;;;;;;5072558;22;20048;-82
2022/09/21 03:23:56;;;;;;;7.50;2.90;;;10.30;99.90;;;;;;5073551;28;20051;-82
2022/09/21 03:26:22;;;;;;;8.07;2.93;;;10.30;99.90;;;;;;5073149;28;20477;-81
2022/09/21 03:28:48;;;;;;;9.13;3.20;;;10.30;99.90;;;;;;5073175;28;20443;-81
2022/09/21 03:31:14;;;;;;;6.93;2.63;;;10.30;99.90;;;;;;5073059;28;20025;-81
2022/09/21 03:33:40;;;;;;;7.30;2.63;;;10.20;99.90;;;;;;5073237;28;20392;-82
2022/09/21 03:36:06;;;;;;;7.43;2.80;;;10.30;99.90;;;;;;5072925;28;20035;-81
2022/09/21 03:38:33;;;;;;;8.10;2.97;;;10.30;99.90;;;;;;5073090;28;20020;-82
2022/09/21 03:40:59;;;;;;;6.93;2.80;;;10.30;99.90;;;;;;5072927;28;20417;-81
2022/09/21 03:43:25;;;;;;;8.17;2.60;;;10.20;99.90;;;;;;5038127;28;20124;-81
2022/09/21 03:45:51;;;;;;;7.57;3.23;;;10.30;99.90;;;;;;5072746;28;20539;-82
2022/09/21 03:48:17;;;;;;;7.27;3.13;;;10.30;99.90;;;;;;5073009;28;20403;-81
2022/09/21 03:50:43;;;;;;;8.77;2.87;;;10.30;99.90;;;;;;5072820;28;20032;-81
2022/09/21 03:53:10;;;;;;;6.77;2.73;;;10.30;99.90;;;;;;5054804;28;20059;-82
2022/09/21 03:55:36;;;;;;;6.53;3.37;;;10.20;99.90;;;;;;5054964;28;20028;-82
2022/09/21 03:58:02;;;;;;;6.93;3.23;;;10.20;99.90;;;;;;5072813;28;20458;-82
2022/09/21 04:00:29;;;;;;;11.13;3.70;;;10.20;99.90;;;;;;5054665;28;20373;-81
2022/09/21 04:02:55;;;;;;;6.53;3.40;;;10.20;99.90;;;;;;5072554;28;20033;-82
2022/09/21 04:05:21;;;;;;;6.53;3.50;;;10.20;99.90;;;;;;5072899;28;20043;-82
2022/09/21 04:07:47;;;;;;;6.40;3.07;;;10.20;99.90;;;;;;5072542;28;20696;-82
2022/09/21 04:10:15;;;;;;;5.10;2.97;;;10.20;99.90;;;;;;5072175;28;20035;-82
2022/09/21 04:12:43;;;;;;;7.68;2.90;;;10.30;99.90;;;;;;5054411;28;20381;-82
2022/09/21 04:15:14;;;;;;;8.40;3.37;;;10.30;99.90;;;;;;5054365;28;20089;-82
2022/09/21 04:17:40;;;;;;;6.90;2.90;;;10.30;99.90;;;;;;5072009;28;20047;-82
2022/09/21 04:20:07;;;;;;;5.97;3.00;;;10.30;99.90;;;;;;5054122;28;20084;-82
2022/09/21 04:22:35;;;;;;;9.03;3.30;;;10.30;99.90;;;;;;5072047;28;20473;-82
2022/09/21 04:25:02;;;;;;;7.03;3.47;;;10.20;99.90;;;;;;5072140;28;20074;-82
2022/09/21 04:27:28;;;;;;;7.00;3.27;;;10.20;99.90;;;;;;5071937;28;20033;-82
2022/09/21 04:29:54;;;;;;;5.83;2.80;;;10.20;99.90;;;;;;5071761;28;20028;-82
2022/09/21 04:32:20;;;;;;;6.57;3.40;;;10.10;99.90;;;;;;5071769;28;20067;-82
2022/09/21 04:34:45;;;;;;;7.53;3.47;;;10.10;99.90;;;;;;5071980;28;20056;-82
2022/09/21 04:37:11;;;;;;;7.67;3.40;;;10.10;99.90;;;;;;5071917;28;20038;-82
2022/09/21 04:39:37;;;;;;;9.17;3.43;;;10.10;99.90;;;;;;5071610;28;20529;-82
2022/09/21 04:42:04;;;;;;;8.40;3.50;;;10.10;99.90;;;;;;5071705;28;20067;-82
2022/09/21 04:44:30;;;;;;;6.10;3.33;;;10.10;99.90;;;;;;5054005;28;20046;-82
2022/09/21 04:46:56;;;;;;;13.67;4.67;;;10.00;99.90;;;;;;5071527;28;20480;-82
2022/09/21 04:49:22;;;;;;;9.63;4.00;;;10.00;99.90;;;;;;5071479;28;20035;-82
2022/09/21 04:51:48;;;;;;;11.07;4.10;;;10.00;99.90;;;;;;5071392;28;20107;-82
2022/09/21 04:54:14;;;;;;;7.63;3.57;;;10.00;99.90;;;;;;5071715;28;20020;-82
2022/09/21 04:56:40;;;;;;;11.37;3.57;;;10.00;99.90;;;;;;5070675;28;20033;-82
2022/09/21 04:59:06;;;;;;;7.87;3.70;;;10.00;99.90;;;;;;5037073;28;20074;-82
2022/09/21 05:01:31;;;;;;;8.97;3.43;;;9.90;99.90;;;;;;5071125;28;20028;-81
2022/09/21 05:04:00;;;;;;;8.57;3.40;;;9.90;99.90;;;;;;5053463;28;20066;-82
2022/09/21 05:06:30;;;;;;;6.55;3.25;;;9.90;99.90;;;;;;5071531;28;20033;-82
2022/09/21 05:11:41;;;;;;;10.97;4.27;;;9.80;99.90;;;;;;5070913;28;20124;-81
2022/09/21 05:14:07;;;;;;;9.43;3.60;;;9.80;99.90;;;;;;5053172;28;20541;-82
2022/09/21 05:16:33;;;;;;;7.03;3.23;;;9.80;99.90;;;;;;5053058;28;20457;-82
2022/09/21 05:18:59;;;;;;;7.03;3.13;;;9.80;99.90;;;;;;5071255;28;20036;-82
2022/09/21 05:21:25;;;;;;;7.80;3.07;;;9.70;99.90;;;;;;5053036;28;20043;-81
2022/09/21 05:23:51;;;;;;;7.37;3.77;;;9.70;99.90;;;;;;5071081;28;20111;-82
2022/09/21 05:26:17;;;;;;;9.67;3.83;;;9.70;99.90;;;;;;5052824;28;20035;-82
2022/09/21 05:28:43;;;;;;;10.87;3.90;;;9.70;99.90;;;;;;5071009;28;20063;-82
2022/09/21 05:31:37;;;;;;;8.90;3.93;;;9.70;99.90;;;;;;5070833;28;20033;-82
2022/09/21 05:34:31;;;;;;;9.97;3.67;;;9.70;99.90;;;;;;5071042;28;20086;-82
2022/09/21 05:37:21;;;;;;;8.97;4.50;;;9.70;99.90;;;;;;5063211;28;20587;-82
2022/09/21 05:39:47;;;;;;;6.72;3.40;;;9.70;99.90;;;;;;5052934;28;20385;-82
2022/09/21 05:42:12;;;;;;;8.93;3.37;;;9.70;99.90;;;;;;5070815;28;20040;-81
2022/09/21 05:44:38;;;;;;;7.17;3.17;;;9.70;99.90;;;;;;5070579;28;20034;-81
2022/09/21 05:47:29;;;;;;;6.47;3.30;;;9.70;99.90;;;;;;5070634;28;20031;-81
2022/09/21 05:50:16;;;;;;;10.40;3.30;;;9.60;99.90;;;;;;5070627;28;20424;-81
2022/09/21 05:52:50;;;;;;;7.77;3.27;;;9.70;99.90;;;;;;5070836;28;20040;-81
2022/09/21 05:55:39;;;;;;;10.40;3.80;;;9.70;99.90;;;;;;5070883;28;20235;-82
2022/09/21 05:58:09;;;;;;;12.20;4.90;;;9.70;99.90;;;;;;5071440;28;20033;-82
2022/09/21 06:01:07;;;;;;;10.43;4.03;;;9.70;99.90;;;;;;5071062;28;20032;-82
2022/09/21 06:03:35;;;;;;;7.50;3.83;;;9.70;99.90;;;;;;5000488;28;20129;-82
2022/09/21 06:06:01;;;;;;;8.37;3.40;;;9.70;99.90;;;;;;5052912;28;20028;-82
2022/09/21 06:08:27;;;;;;;6.43;3.37;;;9.70;99.90;;;;;;5074922;28;20131;-81
2022/09/21 06:10:53;;;;;;;8.57;3.80;;;9.70;99.90;;;;;;5057100;28;20036;-82
2022/09/21 06:13:19;;;;;;;8.13;3.70;;;9.70;99.90;;;;;;5075288;28;20119;-82
2022/09/21 06:15:45;;;;;;;8.70;4.27;;;9.70;99.90;;;;;;5074759;28;20025;-82
2022/09/21 06:18:12;;;;;;;6.93;3.80;;;9.60;99.90;;;;;;5074512;28;20024;-82
2022/09/21 06:20:37;;;;;;;6.57;3.80;;;9.70;99.90;;;;;;5074079;28;20555;-82
2022/09/21 06:23:05;;;;;;;9.10;4.03;;;9.70;99.90;;;;;;5074553;28;20037;-81
2022/09/21 06:25:31;;;;;;;10.40;4.27;;;9.80;99.90;;;;;;5074361;28;20035;-82
2022/09/21 06:28:09;;;;;;;8.50;4.07;;;9.80;99.90;;;;;;5074262;28;20111;-82
2022/09/21 06:30:35;;;;;;;10.57;4.50;;;9.90;99.90;;;;;;5073962;28;20435;-81
2022/09/21 06:33:02;;;;;;;9.07;4.23;;;9.90;99.90;;;;;;5056307;28;20024;-82
2022/09/21 06:35:28;;;;;;;13.97;4.20;;;9.90;99.90;;;;;;5074094;28;20043;-82
2022/09/21 06:38:06;;;;;;;7.57;3.93;;;9.90;99.90;;;;;;5073944;28;20025;-82
2022/09/21 06:40:34;;;;;;;8.10;4.00;;;10.00;99.90;;;;;;5073916;28;20032;-82
2022/09/21 06:43:01;;;;;;;9.83;4.23;;;10.10;99.90;;;;;;5073997;28;20431;-81
2022/09/21 06:45:28;;;;;;;6.97;3.43;;;10.10;99.90;;;;;;5073848;28;20100;-81
2022/09/21 06:47:54;;;;;;;10.87;4.53;;;10.10;99.90;;;;;;5055848;28;20438;-81
2022/09/21 06:50:21;;;;;;;9.13;4.30;;;10.20;99.90;;;;;;5055547;28;20040;-82
2022/09/21 06:52:46;;;;;;;11.33;4.40;;;10.20;99.90;;;;;;5073815;28;20036;-82
2022/09/21 06:55:13;;;;;;;10.63;4.50;;;10.30;99.90;;;;;;5073816;28;20029;-81
2022/09/21 06:57:38;;;;;;;8.97;3.87;;;10.30;99.90;;;;;;5073428;28;20130;-81
2022/09/21 07:00:07;;;;;;;14.27;4.67;;;10.30;99.90;;;;;;5073363;28;20107;-82
2022/09/21 07:02:33;;;;;;;8.30;4.33;;;10.40;99.90;;;;;;5073636;28;20032;-82
2022/09/21 07:04:59;;;;;;;9.93;5.13;;;10.50;99.90;;;;;;5055851;28;20425;-82
2022/09/21 07:07:29;;;;;;;10.80;4.53;;;10.50;99.90;;;;;;5073446;28;20039;-82
2022/09/21 07:09:55;;;;;;;11.23;5.00;;;10.50;99.90;;;;;;5055531;28;20025;-82
2022/09/21 07:12:20;;;;;;;9.73;4.63;;;10.70;99.90;;;;;;5055425;28;20036;-81
2022/09/21 07:14:46;;;;;;;8.57;4.60;;;10.70;99.90;;;;;;5073422;28;20443;-82
2022/09/21 07:17:13;;;;;;;11.13;4.47;;;10.70;99.90;;;;;;5073322;28;20396;-82
2022/09/21 07:19:39;;;;;;;10.60;4.57;;;10.80;99.90;;;;;;5054292;28;20396;-82
2022/09/21 07:22:05;;;;;;;9.67;4.60;;;11.00;99.90;;;;;;5073380;28;20473;-82
2022/09/21 07:24:32;;;;;;;11.87;4.50;;;11.00;99.90;;;;;;5055342;28;20081;-82
2022/09/21 07:26:58;;;;;;;12.10;5.47;;;11.10;99.90;;;;;;5038608;28;20040;-82
2022/09/21 07:29:23;;;;;;;13.47;5.30;;;11.20;99.90;;;;;;5055072;28;20032;-82
2022/09/21 07:31:49;;;;;;;9.60;4.63;;;11.20;99.90;;;;;;5038681;28;20025;-82
2022/09/21 07:34:15;;;;;;;7.67;4.90;;;11.30;99.90;;;;;;5073113;28;20112;-81
2022/09/21 07:36:41;;;;;;;13.53;5.37;;;11.40;99.90;;;;;;5055039;28;20029;-81
2022/09/21 07:39:08;;;;;;;10.13;5.57;;;11.40;99.90;;;;;;5072906;28;20028;-82
2022/09/21 07:41:35;;;;;;;11.83;5.23;;;11.40;99.90;;;;;;5072917;28;20554;-82
2022/09/21 07:44:01;;;;;;;11.03;5.30;;;11.50;99.90;;;;;;5073040;28;20031;-82
2022/09/21 07:46:27;;;;;;;10.17;5.47;;;11.50;99.90;;;;;;5073073;28;20644;-81
2022/09/21 07:48:54;;;;;;;10.20;5.60;;;11.60;99.90;;;;;;5072672;28;20112;-81
2022/09/21 07:51:20;;;;;;;10.77;5.70;;;11.60;99.90;;;;;;5072873;28;20024;-81
2022/09/21 07:53:46;;;;;;;11.73;6.23;;;11.60;99.90;;;;;;5073331;28;20036;-81
2022/09/21 07:56:14;;;;;;;12.90;6.20;;;11.70;99.90;;;;;;5072768;28;20296;-82
2022/09/21 08:01:26;;;;;;;15.97;6.93;;;11.70;99.90;;;;;;5072758;28;20036;-81
2022/09/21 08:03:54;;;;;;;18.10;9.00;;;11.80;99.90;;;;;;5072809;28;20159;-81
2022/09/21 08:06:21;;;;;;;14.57;7.77;;;11.80;99.90;;;;;;5072545;28;20036;-81
2022/09/21 08:08:49;;;;;;;12.10;6.77;;;11.90;99.90;;;;;;5072386;28;20039;-81
2022/09/21 08:11:21;;;;;;;13.63;7.20;;;11.90;99.90;;;;;;5054434;28;20029;-82
2022/09/21 08:13:47;;;;;;;11.90;6.80;;;12.00;99.90;;;;;;5054726;28;20024;-81
2022/09/21 08:16:13;;;;;;;18.30;7.20;;;12.00;99.90;;;;;;5072396;28;20029;-81
2022/09/21 08:18:40;;;;;;;15.20;7.80;;;12.10;99.90;;;;;;5054255;28;20074;-82
2022/09/21 08:21:08;;;;;;;19.60;8.87;;;12.10;99.90;;;;;;5072088;28;20033;-82
2022/09/21 08:23:39;;;;;;;14.35;7.82;;;12.20;99.90;;;;;;5072214;28;20123;-82
2022/09/21 08:26:06;;;;;;;14.48;7.50;;;12.30;99.90;;;;;;5054179;28;20087;-81
2022/09/21 08:28:34;;;;;;;13.60;6.70;;;12.20;99.90;;;;;;5072028;28;20032;-81
2022/09/21 08:31:06;;;;;;;14.30;7.15;;;12.30;99.90;;;;;;5052825;28;20028;-81
2022/09/21 08:33:33;;;;;;;11.43;6.50;;;12.30;99.90;;;;;;5071897;28;20029;-81
2022/09/21 08:36:00;;;;;;;14.43;7.50;;;12.40;99.90;;;;;;5037249;28;20024;-82
2022/09/21 08:38:26;;;;;;;12.85;6.88;;;12.40;99.90;;;;;;5071955;28;20029;-81
2022/09/21 08:40:52;;;;;;;14.38;6.25;;;12.40;99.90;;;;;;5071492;28;20028;-82
2022/09/21 08:43:40;;;;;;;12.73;6.57;;;12.40;99.90;;;;;;5071956;28;20032;-81
2022/09/21 08:46:13;;;;;;;12.18;5.78;;;12.40;99.90;;;;;;5053693;28;20543;-81
2022/09/21 08:49:05;;;;;;;11.95;5.70;;;12.50;99.90;;;;;;5071669;28;20086;-81
2022/09/21 08:51:35;;;;;;;13.63;6.20;;;12.50;99.90;;;;;;5061347;28;20041;-81
2022/09/21 08:54:26;;;;;;;13.40;6.78;;;12.60;99.90;;;;;;5071516;28;20032;-81
2022/09/21 08:56:52;;;;;;;9.98;5.78;;;12.60;99.90;;;;;;5071373;28;20044;-81
2022/09/21 08:59:18;;;;;;;12.25;5.70;;;12.70;99.90;;;;;;5071372;28;20024;-82
2022/09/21 09:02:13;;;;;;;11.23;5.50;;;12.60;99.90;;;;;;5053651;28;20500;-81
2022/09/21 09:05:05;;;;;;;13.70;5.53;;;12.70;99.90;;;;;;5030152;28;20036;-81
2022/09/21 09:07:52;;;;;;;9.23;4.60;;;12.70;99.90;;;;;;5071248;28;20028;-81
2022/09/21 09:10:36;;;;;;;10.93;4.72;;;12.70;99.90;;;;;;5071146;28;20063;-81
2022/09/21 09:13:14;;;;;;;9.88;4.40;;;12.70;99.90;;;;;;5071232;28;20477;-81
2022/09/21 09:16:04;;;;;;;9.82;5.00;;;12.70;99.90;;;;;;5070972;28;20032;-81
2022/09/21 09:18:44;;;;;;;9.90;5.18;;;12.80;99.90;;;;;;5053047;28;20158;-81
2022/09/21 09:24:33;;;;;;;10.05;4.35;;;12.90;99.90;;;;;;5049439;28;20013;-84
2022/09/21 09:27:14;;;;;;;10.48;4.15;;;12.90;99.90;;;;;;5049903;28;20032;-84
2022/09/21 09:30:00;;;;;;;7.53;3.50;;;12.90;99.90;;;;;;5033053;28;20040;-84
2022/09/21 09:32:44;;;;;;;7.53;3.80;;;12.90;99.90;;;;;;5050945;28;20033;-83
2022/09/21 09:35:13;;;;;;;8.48;3.83;;;13.00;99.90;;;;;;5051155;28;20347;-84
2022/09/21 09:37:41;;;;;;;11.63;3.67;;;13.00;99.90;;;;;;5050765;28;20037;-84
2022/09/21 09:40:11;;;;;;;8.13;3.55;;;13.00;99.90;;;;;;5050757;28;20366;-84
2022/09/21 09:43:23;;;;;;;7.45;3.42;;;13.00;99.90;;;;;;5032659;28;20041;-84
2022/09/21 09:46:11;;;;;;;8.55;3.70;;;13.00;99.90;;;;;;5050684;28;20091;-84
2022/09/21 09:48:46;;;;;;;7.90;3.15;;;13.10;99.90;;;;;;5040086;28;20132;-84
2022/09/21 09:51:12;;;;;;;8.30;2.83;;;13.10;99.90;;;;;;5050726;28;20028;-84
2022/09/21 09:53:40;;;;;;;5.82;2.65;;;13.20;99.90;;;;;;5050860;28;20057;-84
2022/09/21 09:56:09;;;;;;;5.82;2.30;;;13.20;99.90;;;;;;5050428;28;20056;-84
2022/09/21 09:58:51;;;;;;;8.68;2.10;;;13.20;99.90;;;;;;5050475;28;20059;-84
2022/09/21 10:01:45;;;;;;;6.00;1.60;;;13.30;99.90;;;;;;5050518;28;20064;-84
2022/09/21 10:04:13;;;;;;;7.07;2.85;;;13.30;99.90;;;;;;5050706;28;20092;-84
2022/09/21 10:06:40;;;;;;;11.00;3.40;;;13.30;99.90;;;;;;5050491;28;20033;-84
2022/09/21 10:09:26;;;;;;;7.97;3.78;;;13.40;99.90;;;;;;5050840;28;20557;-84
2022/09/21 10:12:17;;;;;;;6.78;3.05;;;13.40;99.90;;;;;;5050320;28;20403;-84
2022/09/21 10:14:50;;;;;;;8.73;2.92;;;13.50;99.90;;;;;;5038585;28;20432;-84
2022/09/21 10:17:17;;;;;;;8.38;2.80;;;13.60;99.90;;;;;;5050565;28;20025;-84
2022/09/21 10:19:43;;;;;;;5.97;1.95;;;13.50;99.90;;;;;;5050292;28;20029;-84
2022/09/21 10:22:18;;;;;;;5.93;2.13;;;13.60;99.90;;;;;;5050371;28;20033;-84
2022/09/21 10:24:49;;;;;;;6.57;1.83;;;13.60;99.90;;;;;;5050577;28;20029;-84
2022/09/21 10:27:19;;;;;;;4.35;1.70;;;13.60;99.90;;;;;;5050277;28;20060;-84
2022/09/21 10:29:47;;;;;;;5.80;2.30;;;13.50;99.90;;;;;;5050308;28;20315;-84
2022/09/21 10:32:13;;;;;;;7.07;2.60;;;13.60;99.90;;;;;;5049106;28;20029;-84
2022/09/21 10:34:43;;;;;;;6.75;2.08;;;13.50;99.90;;;;;;5050348;28;20445;-84
2022/09/21 10:37:41;;;;;;;4.63;2.10;;;13.60;99.90;;;;;;5050366;28;20445;-84
2022/09/21 10:40:16;;;;;;;4.53;1.58;;;13.70;99.90;;;;;;5045098;28;20501;-84
2022/09/21 10:42:42;;;;;;;5.55;1.90;;;13.70;99.90;;;;;;5050264;28;20033;-84
2022/09/21 10:45:15;;;;;;;3.65;1.70;;;13.80;99.90;;;;;;5050170;28;20031;-84
2022/09/21 10:47:46;;;;;;;8.23;2.60;;;13.80;99.90;;;;;;5050361;28;20507;-83
2022/09/21 10:50:39;;;;;;;6.32;2.05;;;13.80;99.90;;;;;;5050227;28;20420;-84
2022/09/21 10:53:08;;;;;;;7.47;3.38;;;13.90;99.90;;;;;;5050244;28;20112;-84
2022/09/21 10:55:40;;;;;;;7.10;2.20;;;13.90;99.90;;;;;;5053844;28;20477;-84
2022/09/21 10:58:11;;;;;;;5.93;1.65;;;14.00;99.90;;;;;;5054285;28;20037;-84
2022/09/21 11:00:44;;;;;;;6.53;1.92;;;14.00;99.90;;;;;;5053784;28;20481;-84
2022/09/21 11:03:54;;;;;;;3.60;1.67;;;14.00;99.90;;;;;;5053958;28;20068;-84
2022/09/21 11:06:29;;;;;;;7.38;1.95;;;14.00;99.90;;;;;;5052831;28;20094;-83
2022/09/21 11:09:04;;;;;;;6.95;1.80;;;14.00;99.90;;;;;;5035956;28;20029;-84
2022/09/21 11:11:46;;;;;;;9.55;3.88;;;14.00;99.90;;;;;;5053727;28;20033;-84
2022/09/21 11:14:38;;;;;;;13.10;5.95;;;14.10;99.90;;;;;;5053648;28;20488;-84
2022/09/21 11:17:30;;;;;;;8.00;3.05;;;14.20;99.90;;;;;;5053632;28;20508;-84
2022/09/21 11:20:25;;;;;;;7.10;2.90;;;14.30;99.90;;;;;;5053214;28;20115;-84
2022/09/21 11:22:58;;;;;;;6.88;2.13;;;14.30;99.90;;;;;;5053513;28;20116;-84
2022/09/21 11:25:39;;;;;;;6.25;2.60;;;14.40;99.90;;;;;;5035756;28;20537;-84
2022/09/21 11:28:16;;;;;;;6.25;2.25;;;14.50;99.90;;;;;;5053578;28;20417;-84
2022/09/21 11:31:08;;;;;;;5.35;1.80;;;14.60;99.80;;;;;;5053141;28;20401;-84
2022/09/21 11:33:42;;;;;;;4.90;1.63;;;14.70;99.10;;;;;;4998979;28;20037;-84
2022/09/21 11:36:28;;;;;;;3.17;1.35;;;14.70;98.40;;;;;;5053040;28;20124;-83
2022/09/21 11:39:01;;;;;;;3.30;1.48;;;14.80;98.20;;;;;;5052985;28;20059;-84
2022/09/21 11:41:52;;;;;;;5.93;2.08;;;14.80;98.40;;;;;;5052936;28;20064;-84
2022/09/21 11:44:31;;;;;;;6.07;1.52;;;14.90;98.50;;;;;;5053133;28;20036;-84
2022/09/21 11:46:59;;;;;;;3.67;1.15;;;14.90;97.60;;;;;;5051627;28;20029;-84
2022/09/21 11:49:27;;;;;;;4.45;1.13;;;14.90;97.40;;;;;;5052874;28;20172;-84
2022/09/21 11:52:20;;;;;;;2.53;0.90;;;15.00;97.50;;;;;;5052627;28;20063;-84
2022/09/21 11:55:24;;;;;;;7.75;1.60;;;15.10;96.60;;;;;;5052795;28;20033;-84
2022/09/21 11:57:56;;;;;;;4.65;1.20;;;15.20;96.10;;;;;;5052451;28;20078;-84
2022/09/21 12:00:23;;;;;;;4.10;1.27;;;15.30;95.70;;;;;;5052479;28;20033;-84
2022/09/21 12:03:40;;;;;;;3.60;1.45;;;15.40;95.40;;;;;;5034750;28;20174;-84
2022/09/21 12:06:20;;;;;;;3.45;1.10;;;15.40;95.60;;;;;;5017906;28;20402;-84
2022/09/21 12:08:54;;;;;;;5.65;1.40;;;15.40;95.80;;;;;;5052618;28;20086;-84
2022/09/21 12:11:37;;;;;;;4.10;1.00;;;15.50;95.70;;;;;;5052299;28;20477;-84
2022/09/21 12:14:33;;;;;;;5.13;1.63;;;15.40;95.80;;;;;;5052349;28;20064;-84
2022/09/21 12:17:08;;;;;;;3.90;1.10;;;15.40;95.90;;;;;;5050742;28;20033;-84
2022/09/21 12:19:34;;;;;;;3.78;0.90;;;15.40;95.20;;;;;;5052039;28;20036;-84
2022/09/21 12:22:07;;;;;;;4.72;1.40;;;15.40;94.60;;;;;;5052084;28;20029;-84
2022/09/21 12:24:56;;;;;;;4.10;1.10;;;15.50;94.10;;;;;;5052219;28;20508;-84
2022/09/21 12:27:30;;;;;;;3.95;1.17;;;15.50;93.70;;;;;;5010506;28;20135;-84
2022/09/21 12:30:22;;;;;;;4.50;0.90;;;15.60;93.60;;;;;;5051996;28;20037;-84
2022/09/21 12:32:56;;;;;;;4.88;1.50;;;15.50;93.90;;;;;;5048434;28;20048;-84
2022/09/21 12:35:33;;;;;;;6.35;1.63;;;15.60;94.00;;;;;;5051889;28;20028;-84
2022/09/21 12:38:09;;;;;;;5.15;1.25;;;15.60;94.60;;;;;;5051856;28;20037;-84
2022/09/21 12:40:50;;;;;;;3.47;1.00;;;15.60;94.90;;;;;;5051708;28;20104;-84
2022/09/21 12:43:25;;;;;;;4.50;1.10;;;15.70;94.20;;;;;;5051699;28;20508;-84
2022/09/21 12:45:58;;;;;;;7.75;2.28;;;15.70;92.90;;;;;;5051544;28;20112;-83
2022/09/21 12:48:33;;;;;;;6.47;1.90;;;15.70;92.70;;;;;;5051682;28;20029;-84
2022/09/21 12:51:02;;;;;;;6.88;1.20;;;15.80;92.00;;;;;;5050329;28;20159;-84
2022/09/21 12:53:31;;;;;;;3.88;0.98;;;15.80;91.30;;;;;;5051612;28;20028;-84
2022/09/21 12:56:20;;;;;;;6.22;1.05;;;15.80;91.40;;;;;;5051356;28;20540;-84
2022/09/21 12:58:59;;;;;;;3.15;1.00;;;15.80;91.80;;;;;;5051381;28;20025;-84
2022/09/21 13:01:29;;;;;;;5.47;1.30;;;15.80;92.20;;;;;;5051381;28;20477;-84
2022/09/21 13:04:15;;;;;;;5.72;1.25;;;15.80;92.70;;;;;;5051389;28;20025;-84
2022/09/21 13:07:20;;;;;;;5.07;1.00;;;15.70;93.40;;;;;;5051204;28;20070;-84
2022/09/21 13:09:47;;;;;;;2.67;1.13;;;15.70;93.20;;;;;;5009245;28;20048;-84
2022/09/21 13:12:22;;;;;;;6.80;1.50;;;15.70;93.00;;;;;;5051059;28;20039;-84
2022/09/21 13:14:53;;;;;;;5.13;1.30;;;15.80;93.60;;;;;;5051354;28;20047;-84
2022/09/21 13:17:26;;;;;;;6.63;1.45;;;15.90;93.10;;;;;;5050442;28;20032;-84
2022/09/21 13:20:17;;;;;;;4.93;1.50;;;15.90;92.50;;;;;;5050976;28;20029;-84
2022/09/21 13:22:44;;;;;;;6.70;1.42;;;15.90;92.60;;;;;;5051221;28;20029;-84
2022/09/21 13:25:24;;;;;;;5.97;2.15;;;16.00;92.60;;;;;;5051140;28;20083;-84